sensor_id;sensor_type;location;lat;lon;timestamp;pressure;altitude;pressure_sealevel;temperature
4421;BMP180;11824;51.178;13.546;2022-10-16T00:01:43;99994.00;;;13.60
4421;BMP180;11824;51.178;13.546;2022-10-16T00:04:12;99998.00;;;13.60
4421;BMP180;11824;51.178;13.546;2022-10-16T00:06:42;99996.00;;;13.50
4421;BMP180;11824;51.178;13.546;2022-10-16T00:09:11;99990.00;;;13.50
4421;BMP180;11824;51.178;13.546;2022-10-16T00:11:40;99997.00;;;13.50
4421;BMP180;11824;51.178;13.546;2022-10-16T00:14:38;100004.00;;;13.50
4421;BMP180;11824;51.178;13.546;2022-10-16T00:17:08;100007.00;;;13.50
4421;BMP180;11824;51.178;13.546;2022-10-16T00:19:36;100000.00;;;13.50
4421;BMP180;11824;51.178;13.546;2022-10-16T00:22:07;99997.00;;;13.50
4421;BMP180;11824;51.178;13.546;2022-10-16T00:24:36;100003.00;;;13.50
4421;BMP180;11824;51.178;13.546;2022-10-16T00:27:04;100000.00;;;13.50
4421;BMP180;11824;51.178;13.546;2022-10-16T00:29:33;100006.00;;;13.40
4421;BMP180;11824;51.178;13.546;2022-10-16T00:32:02;100010.00;;;13.40
4421;BMP180;11824;51.178;13.546;2022-10-16T00:34:31;100005.00;;;13.40
4421;BMP180;11824;51.178;13.546;2022-10-16T00:37:02;100013.00;;;13.40
4421;BMP180;11824;51.178;13.546;2022-10-16T00:39:55;100018.00;;;13.50
4421;BMP180;11824;51.178;13.546;2022-10-16T00:42:37;100027.00;;;13.50
4421;BMP180;11824;51.178;13.546;2022-10-16T00:45:33;100027.00;;;13.50
4421;BMP180;11824;51.178;13.546;2022-10-16T00:48:14;100026.00;;;13.60
4421;BMP180;11824;51.178;13.546;2022-10-16T00:50:52;100021.00;;;13.60
4421;BMP180;11824;51.178;13.546;2022-10-16T00:53:28;100019.00;;;13.70
4421;BMP180;11824;51.178;13.546;2022-10-16T00:56:08;100025.00;;;13.70
4421;BMP180;11824;51.178;13.546;2022-10-16T00:58:54;100023.00;;;13.80
4421;BMP180;11824;51.178;13.546;2022-10-16T01:01:27;100029.00;;;13.90
4421;BMP180;11824;51.178;13.546;2022-10-16T01:04:00;100016.00;;;13.90
4421;BMP180;11824;51.178;13.546;2022-10-16T01:06:38;100024.00;;;14.00
4421;BMP180;11824;51.178;13.546;2022-10-16T01:09:17;100027.00;;;14.00
4421;BMP180;11824;51.178;13.546;2022-10-16T01:11:57;100020.00;;;14.10
4421;BMP180;11824;51.178;13.546;2022-10-16T01:14:40;100026.00;;;14.10
4421;BMP180;11824;51.178;13.546;2022-10-16T01:17:15;100026.00;;;14.20
4421;BMP180;11824;51.178;13.546;2022-10-16T01:20:00;100032.00;;;14.30
4421;BMP180;11824;51.178;13.546;2022-10-16T01:23:02;100030.00;;;14.40
4421;BMP180;11824;51.178;13.546;2022-10-16T01:25:58;100029.00;;;14.40
4421;BMP180;11824;51.178;13.546;2022-10-16T01:28:34;100034.00;;;14.50
4421;BMP180;11824;51.178;13.546;2022-10-16T01:31:26;100037.00;;;14.50
4421;BMP180;11824;51.178;13.546;2022-10-16T01:33:59;100039.00;;;14.60
4421;BMP180;11824;51.178;13.546;2022-10-16T01:36:35;100038.00;;;14.60
4421;BMP180;11824;51.178;13.546;2022-10-16T01:39:08;100034.00;;;14.70
4421;BMP180;11824;51.178;13.546;2022-10-16T01:41:41;100024.00;;;14.70
4421;BMP180;11824;51.178;13.546;2022-10-16T01:44:16;100021.00;;;14.70
4421;BMP180;11824;51.178;13.546;2022-10-16T01:46:48;100019.00;;;14.70
4421;BMP180;11824;51.178;13.546;2022-10-16T01:49:18;100018.00;;;14.70
4421;BMP180;11824;51.178;13.546;2022-10-16T01:51:50;100021.00;;;14.70
4421;BMP180;11824;51.178;13.546;2022-10-16T01:54:20;100019.00;;;14.70
4421;BMP180;11824;51.178;13.546;2022-10-16T01:56:51;100021.00;;;14.80
4421;BMP180;11824;51.178;13.546;2022-10-16T01:59:24;100026.00;;;14.80
4421;BMP180;11824;51.178;13.546;2022-10-16T02:01:56;100030.00;;;14.90
4421;BMP180;11824;51.178;13.546;2022-10-16T02:04:29;100039.00;;;14.90
4421;BMP180;11824;51.178;13.546;2022-10-16T02:06:59;100041.00;;;14.90
4421;BMP180;11824;51.178;13.546;2022-10-16T02:09:27;100044.00;;;15.00
4421;BMP180;11824;51.178;13.546;2022-10-16T02:11:57;100049.00;;;15.00
4421;BMP180;11824;51.178;13.546;2022-10-16T02:14:31;100047.00;;;15.10
4421;BMP180;11824;51.178;13.546;2022-10-16T02:16:59;100047.00;;;15.20
4421;BMP180;11824;51.178;13.546;2022-10-16T02:19:27;100042.00;;;15.20
4421;BMP180;11824;51.178;13.546;2022-10-16T02:22:03;100045.00;;;15.30
4421;BMP180;11824;51.178;13.546;2022-10-16T02:24:52;100047.00;;;15.30
4421;BMP180;11824;51.178;13.546;2022-10-16T02:27:27;100043.00;;;15.40
4421;BMP180;11824;51.178;13.546;2022-10-16T02:30:03;100034.00;;;15.50
4421;BMP180;11824;51.178;13.546;2022-10-16T02:32:36;100037.00;;;15.50
4421;BMP180;11824;51.178;13.546;2022-10-16T02:35:07;100049.00;;;15.50
4421;BMP180;11824;51.178;13.546;2022-10-16T02:37:36;100050.00;;;15.60
4421;BMP180;11824;51.178;13.546;2022-10-16T02:40:08;100044.00;;;15.60
4421;BMP180;11824;51.178;13.546;2022-10-16T02:42:38;100049.00;;;15.60
4421;BMP180;11824;51.178;13.546;2022-10-16T02:45:11;100052.00;;;15.60
4421;BMP180;11824;51.178;13.546;2022-10-16T02:47:40;100052.00;;;15.60
4421;BMP180;11824;51.178;13.546;2022-10-16T02:50:08;100046.00;;;15.60
4421;BMP180;11824;51.178;13.546;2022-10-16T02:52:37;100049.00;;;15.60
4421;BMP180;11824;51.178;13.546;2022-10-16T02:55:06;100038.00;;;15.60
4421;BMP180;11824;51.178;13.546;2022-10-16T02:57:34;100037.00;;;15.60
4421;BMP180;11824;51.178;13.546;2022-10-16T03:00:04;100036.00;;;15.60
4421;BMP180;11824;51.178;13.546;2022-10-16T03:02:34;100037.00;;;15.60
4421;BMP180;11824;51.178;13.546;2022-10-16T03:05:03;100041.00;;;15.60
4421;BMP180;11824;51.178;13.546;2022-10-16T03:07:32;100043.00;;;15.60
4421;BMP180;11824;51.178;13.546;2022-10-16T03:10:00;100055.00;;;15.70
4421;BMP180;11824;51.178;13.546;2022-10-16T03:12:29;100063.00;;;15.70
4421;BMP180;11824;51.178;13.546;2022-10-16T03:14:58;100063.00;;;15.70
4421;BMP180;11824;51.178;13.546;2022-10-16T03:17:26;100069.00;;;15.70
4421;BMP180;11824;51.178;13.546;2022-10-16T03:19:56;100069.00;;;15.70
4421;BMP180;11824;51.178;13.546;2022-10-16T03:22:25;100063.00;;;15.70
4421;BMP180;11824;51.178;13.546;2022-10-16T03:24:53;100067.00;;;15.70
4421;BMP180;11824;51.178;13.546;2022-10-16T03:27:22;100078.00;;;15.60
4421;BMP180;11824;51.178;13.546;2022-10-16T03:29:51;100067.00;;;15.60
4421;BMP180;11824;51.178;13.546;2022-10-16T03:32:20;100067.00;;;15.50
4421;BMP180;11824;51.178;13.546;2022-10-16T03:34:48;100075.00;;;15.40
4421;BMP180;11824;51.178;13.546;2022-10-16T03:37:18;100076.00;;;15.40
4421;BMP180;11824;51.178;13.546;2022-10-16T03:39:47;100076.00;;;15.30
4421;BMP180;11824;51.178;13.546;2022-10-16T03:42:15;100075.00;;;15.20
4421;BMP180;11824;51.178;13.546;2022-10-16T03:44:44;100073.00;;;15.10
4421;BMP180;11824;51.178;13.546;2022-10-16T03:47:12;100063.00;;;15.00
4421;BMP180;11824;51.178;13.546;2022-10-16T03:49:40;100077.00;;;14.90
4421;BMP180;11824;51.178;13.546;2022-10-16T03:52:09;100085.00;;;14.90
4421;BMP180;11824;51.178;13.546;2022-10-16T03:54:39;100082.00;;;14.80
4421;BMP180;11824;51.178;13.546;2022-10-16T03:57:07;100088.00;;;14.80
4421;BMP180;11824;51.178;13.546;2022-10-16T03:59:36;100080.00;;;14.70
4421;BMP180;11824;51.178;13.546;2022-10-16T04:02:04;100089.00;;;14.70
4421;BMP180;11824;51.178;13.546;2022-10-16T04:04:33;100096.00;;;14.70
4421;BMP180;11824;51.178;13.546;2022-10-16T04:07:02;100098.00;;;14.60
4421;BMP180;11824;51.178;13.546;2022-10-16T04:09:30;100097.00;;;14.60
4421;BMP180;11824;51.178;13.546;2022-10-16T04:12:00;100105.00;;;14.60
4421;BMP180;11824;51.178;13.546;2022-10-16T04:14:29;100108.00;;;14.50
4421;BMP180;11824;51.178;13.546;2022-10-16T04:16:57;100112.00;;;14.50
4421;BMP180;11824;51.178;13.546;2022-10-16T04:19:26;100116.00;;;14.50
4421;BMP180;11824;51.178;13.546;2022-10-16T04:21:54;100119.00;;;14.50
4421;BMP180;11824;51.178;13.546;2022-10-16T04:24:23;100115.00;;;14.50
4421;BMP180;11824;51.178;13.546;2022-10-16T04:26:51;100116.00;;;14.50
4421;BMP180;11824;51.178;13.546;2022-10-16T04:29:21;100113.00;;;14.40
4421;BMP180;11824;51.178;13.546;2022-10-16T04:31:49;100119.00;;;14.40
4421;BMP180;11824;51.178;13.546;2022-10-16T04:34:18;100119.00;;;14.40
4421;BMP180;11824;51.178;13.546;2022-10-16T04:36:48;100131.00;;;14.30
4421;BMP180;11824;51.178;13.546;2022-10-16T04:39:17;100118.00;;;14.30
4421;BMP180;11824;51.178;13.546;2022-10-16T04:41:45;100114.00;;;14.30
4421;BMP180;11824;51.178;13.546;2022-10-16T04:44:14;100113.00;;;14.30
4421;BMP180;11824;51.178;13.546;2022-10-16T04:46:43;100107.00;;;14.30
4421;BMP180;11824;51.178;13.546;2022-10-16T04:49:12;100115.00;;;14.30
4421;BMP180;11824;51.178;13.546;2022-10-16T04:51:40;100124.00;;;14.20
4421;BMP180;11824;51.178;13.546;2022-10-16T04:54:09;100114.00;;;14.20
4421;BMP180;11824;51.178;13.546;2022-10-16T04:56:38;100121.00;;;14.20
4421;BMP180;11824;51.178;13.546;2022-10-16T04:59:13;100128.00;;;14.20
4421;BMP180;11824;51.178;13.546;2022-10-16T05:01:44;100131.00;;;14.10
4421;BMP180;11824;51.178;13.546;2022-10-16T05:04:12;100119.00;;;14.10
4421;BMP180;11824;51.178;13.546;2022-10-16T05:06:42;100123.00;;;14.10
4421;BMP180;11824;51.178;13.546;2022-10-16T05:09:11;100117.00;;;14.10
4421;BMP180;11824;51.178;13.546;2022-10-16T05:11:39;100135.00;;;14.10
4421;BMP180;11824;51.178;13.546;2022-10-16T05:14:07;100138.00;;;14.00
4421;BMP180;11824;51.178;13.546;2022-10-16T05:16:37;100150.00;;;14.00
4421;BMP180;11824;51.178;13.546;2022-10-16T05:19:07;100155.00;;;14.00
4421;BMP180;11824;51.178;13.546;2022-10-16T05:21:55;100147.00;;;13.90
4421;BMP180;11824;51.178;13.546;2022-10-16T05:24:24;100144.00;;;13.90
4421;BMP180;11824;51.178;13.546;2022-10-16T05:26:52;100136.00;;;13.90
4421;BMP180;11824;51.178;13.546;2022-10-16T05:29:21;100137.00;;;13.80
4421;BMP180;11824;51.178;13.546;2022-10-16T05:31:53;100140.00;;;13.80
4421;BMP180;11824;51.178;13.546;2022-10-16T05:34:23;100132.00;;;13.80
4421;BMP180;11824;51.178;13.546;2022-10-16T05:36:52;100134.00;;;13.80
4421;BMP180;11824;51.178;13.546;2022-10-16T05:39:20;100131.00;;;13.80
4421;BMP180;11824;51.178;13.546;2022-10-16T05:41:50;100144.00;;;13.80
4421;BMP180;11824;51.178;13.546;2022-10-16T05:44:19;100151.00;;;13.80
4421;BMP180;11824;51.178;13.546;2022-10-16T05:46:48;100161.00;;;13.80
4421;BMP180;11824;51.178;13.546;2022-10-16T05:49:16;100159.00;;;13.80
4421;BMP180;11824;51.178;13.546;2022-10-16T05:51:46;100159.00;;;13.80
4421;BMP180;11824;51.178;13.546;2022-10-16T05:54:15;100167.00;;;13.80
4421;BMP180;11824;51.178;13.546;2022-10-16T05:56:44;100162.00;;;13.70
4421;BMP180;11824;51.178;13.546;2022-10-16T05:59:12;100155.00;;;13.70
4421;BMP180;11824;51.178;13.546;2022-10-16T06:01:41;100162.00;;;13.70
4421;BMP180;11824;51.178;13.546;2022-10-16T06:04:09;100169.00;;;13.70
4421;BMP180;11824;51.178;13.546;2022-10-16T06:06:37;100170.00;;;13.70
4421;BMP180;11824;51.178;13.546;2022-10-16T06:09:08;100170.00;;;13.70
4421;BMP180;11824;51.178;13.546;2022-10-16T06:11:37;100178.00;;;13.80
4421;BMP180;11824;51.178;13.546;2022-10-16T06:14:06;100187.00;;;13.80
4421;BMP180;11824;51.178;13.546;2022-10-16T06:16:35;100182.00;;;13.80
4421;BMP180;11824;51.178;13.546;2022-10-16T06:19:04;100193.00;;;13.90
4421;BMP180;11824;51.178;13.546;2022-10-16T06:21:35;100197.00;;;14.00
4421;BMP180;11824;51.178;13.546;2022-10-16T06:24:04;100206.00;;;14.10
4421;BMP180;11824;51.178;13.546;2022-10-16T06:26:33;100202.00;;;14.20
4421;BMP180;11824;51.178;13.546;2022-10-16T06:29:02;100199.00;;;14.30
4421;BMP180;11824;51.178;13.546;2022-10-16T06:31:31;100203.00;;;14.40
4421;BMP180;11824;51.178;13.546;2022-10-16T06:34:00;100204.00;;;14.50
4421;BMP180;11824;51.178;13.546;2022-10-16T06:36:29;100201.00;;;14.60
4421;BMP180;11824;51.178;13.546;2022-10-16T06:38:57;100202.00;;;14.60
4421;BMP180;11824;51.178;13.546;2022-10-16T06:41:26;100208.00;;;14.70
4421;BMP180;11824;51.178;13.546;2022-10-16T06:43:56;100206.00;;;14.80
4421;BMP180;11824;51.178;13.546;2022-10-16T06:46:26;100227.00;;;14.80
4421;BMP180;11824;51.178;13.546;2022-10-16T06:48:54;100223.00;;;14.90
4421;BMP180;11824;51.178;13.546;2022-10-16T06:51:24;100224.00;;;14.90
4421;BMP180;11824;51.178;13.546;2022-10-16T06:53:54;100218.00;;;15.00
4421;BMP180;11824;51.178;13.546;2022-10-16T06:56:32;100232.00;;;15.00
4421;BMP180;11824;51.178;13.546;2022-10-16T06:59:02;100236.00;;;15.10
4421;BMP180;11824;51.178;13.546;2022-10-16T07:01:32;100237.00;;;15.20
4421;BMP180;11824;51.178;13.546;2022-10-16T07:04:01;100236.00;;;15.30
4421;BMP180;11824;51.178;13.546;2022-10-16T07:06:32;100239.00;;;15.30
4421;BMP180;11824;51.178;13.546;2022-10-16T07:09:03;100243.00;;;15.50
4421;BMP180;11824;51.178;13.546;2022-10-16T07:11:32;100250.00;;;15.50
4421;BMP180;11824;51.178;13.546;2022-10-16T07:14:02;100249.00;;;15.60
4421;BMP180;11824;51.178;13.546;2022-10-16T07:16:32;100259.00;;;15.70
4421;BMP180;11824;51.178;13.546;2022-10-16T07:19:01;100266.00;;;15.80
4421;BMP180;11824;51.178;13.546;2022-10-16T07:21:32;100268.00;;;15.80
4421;BMP180;11824;51.178;13.546;2022-10-16T07:24:05;100269.00;;;15.90
4421;BMP180;11824;51.178;13.546;2022-10-16T07:26:35;100270.00;;;16.10
4421;BMP180;11824;51.178;13.546;2022-10-16T07:29:06;100276.00;;;16.20
4421;BMP180;11824;51.178;13.546;2022-10-16T07:31:35;100277.00;;;16.30
4421;BMP180;11824;51.178;13.546;2022-10-16T07:34:05;100280.00;;;16.50
4421;BMP180;11824;51.178;13.546;2022-10-16T07:36:33;100289.00;;;16.60
4421;BMP180;11824;51.178;13.546;2022-10-16T07:39:02;100288.00;;;16.80
4421;BMP180;11824;51.178;13.546;2022-10-16T07:41:31;100285.00;;;17.00
4421;BMP180;11824;51.178;13.546;2022-10-16T07:44:05;100292.00;;;17.10
4421;BMP180;11824;51.178;13.546;2022-10-16T07:46:34;100288.00;;;17.30
4421;BMP180;11824;51.178;13.546;2022-10-16T07:49:03;100293.00;;;17.40
4421;BMP180;11824;51.178;13.546;2022-10-16T07:51:32;100288.00;;;17.60
4421;BMP180;11824;51.178;13.546;2022-10-16T07:54:00;100292.00;;;17.70
4421;BMP180;11824;51.178;13.546;2022-10-16T07:56:31;100289.00;;;17.80
4421;BMP180;11824;51.178;13.546;2022-10-16T07:59:00;100284.00;;;17.90
4421;BMP180;11824;51.178;13.546;2022-10-16T08:01:30;100284.00;;;18.00
4421;BMP180;11824;51.178;13.546;2022-10-16T08:03:58;100301.00;;;18.10
4421;BMP180;11824;51.178;13.546;2022-10-16T08:06:27;100297.00;;;18.10
4421;BMP180;11824;51.178;13.546;2022-10-16T08:08:56;100288.00;;;18.20
4421;BMP180;11824;51.178;13.546;2022-10-16T08:11:27;100293.00;;;18.20
4421;BMP180;11824;51.178;13.546;2022-10-16T08:13:55;100307.00;;;18.20
4421;BMP180;11824;51.178;13.546;2022-10-16T08:16:24;100307.00;;;18.30
4421;BMP180;11824;51.178;13.546;2022-10-16T08:18:53;100300.00;;;18.30
4421;BMP180;11824;51.178;13.546;2022-10-16T08:21:22;100302.00;;;18.40
4421;BMP180;11824;51.178;13.546;2022-10-16T08:23:52;100302.00;;;18.50
4421;BMP180;11824;51.178;13.546;2022-10-16T08:26:25;100296.00;;;18.60
4421;BMP180;11824;51.178;13.546;2022-10-16T08:28:54;100301.00;;;18.70
4421;BMP180;11824;51.178;13.546;2022-10-16T08:31:24;100291.00;;;18.80
4421;BMP180;11824;51.178;13.546;2022-10-16T08:33:55;100302.00;;;18.90
4421;BMP180;11824;51.178;13.546;2022-10-16T08:36:23;100303.00;;;18.90
4421;BMP180;11824;51.178;13.546;2022-10-16T08:38:52;100304.00;;;19.00
4421;BMP180;11824;51.178;13.546;2022-10-16T08:41:30;100310.00;;;19.10
4421;BMP180;11824;51.178;13.546;2022-10-16T08:44:24;100311.00;;;19.20
4421;BMP180;11824;51.178;13.546;2022-10-16T08:46:59;100312.00;;;19.20
4421;BMP180;11824;51.178;13.546;2022-10-16T08:49:32;100309.00;;;19.30
4421;BMP180;11824;51.178;13.546;2022-10-16T08:52:01;100316.00;;;19.40
4421;BMP180;11824;51.178;13.546;2022-10-16T08:54:31;100318.00;;;19.40
4421;BMP180;11824;51.178;13.546;2022-10-16T08:57:09;100314.00;;;19.40
4421;BMP180;11824;51.178;13.546;2022-10-16T08:59:39;100316.00;;;19.40
4421;BMP180;11824;51.178;13.546;2022-10-16T09:02:21;100320.00;;;19.40
4421;BMP180;11824;51.178;13.546;2022-10-16T09:05:10;100316.00;;;19.50
4421;BMP180;11824;51.178;13.546;2022-10-16T09:07:49;100308.00;;;19.50
4421;BMP180;11824;51.178;13.546;2022-10-16T09:10:28;100318.00;;;19.50
4421;BMP180;11824;51.178;13.546;2022-10-16T09:13:07;100332.00;;;19.60
4421;BMP180;11824;51.178;13.546;2022-10-16T09:15:42;100342.00;;;19.70
4421;BMP180;11824;51.178;13.546;2022-10-16T09:18:16;100341.00;;;19.80
4421;BMP180;11824;51.178;13.546;2022-10-16T09:20:53;100341.00;;;19.80
4421;BMP180;11824;51.178;13.546;2022-10-16T09:23:27;100341.00;;;19.90
4421;BMP180;11824;51.178;13.546;2022-10-16T09:25:56;100342.00;;;20.00
4421;BMP180;11824;51.178;13.546;2022-10-16T09:28:26;100345.00;;;20.10
4421;BMP180;11824;51.178;13.546;2022-10-16T09:30:55;100351.00;;;20.20
4421;BMP180;11824;51.178;13.546;2022-10-16T09:33:28;100355.00;;;20.30
4421;BMP180;11824;51.178;13.546;2022-10-16T09:35:59;100347.00;;;20.40
4421;BMP180;11824;51.178;13.546;2022-10-16T09:38:32;100356.00;;;20.50
4421;BMP180;11824;51.178;13.546;2022-10-16T09:41:02;100355.00;;;20.60
4421;BMP180;11824;51.178;13.546;2022-10-16T09:43:35;100352.00;;;20.70
4421;BMP180;11824;51.178;13.546;2022-10-16T09:46:19;100365.00;;;20.80
4421;BMP180;11824;51.178;13.546;2022-10-16T09:48:50;100380.00;;;21.00
4421;BMP180;11824;51.178;13.546;2022-10-16T09:51:24;100379.00;;;21.10
4421;BMP180;11824;51.178;13.546;2022-10-16T09:53:56;100358.00;;;21.20
4421;BMP180;11824;51.178;13.546;2022-10-16T09:56:26;100371.00;;;21.30
4421;BMP180;11824;51.178;13.546;2022-10-16T09:58:57;100379.00;;;21.30
4421;BMP180;11824;51.178;13.546;2022-10-16T10:01:30;100375.00;;;21.40
4421;BMP180;11824;51.178;13.546;2022-10-16T10:04:00;100367.00;;;21.40
4421;BMP180;11824;51.178;13.546;2022-10-16T10:06:34;100371.00;;;21.50
4421;BMP180;11824;51.178;13.546;2022-10-16T10:09:13;100378.00;;;21.50
4421;BMP180;11824;51.178;13.546;2022-10-16T10:11:47;100377.00;;;21.60
4421;BMP180;11824;51.178;13.546;2022-10-16T10:14:29;100370.00;;;21.70
4421;BMP180;11824;51.178;13.546;2022-10-16T10:17:18;100384.00;;;21.80
4421;BMP180;11824;51.178;13.546;2022-10-16T10:19:52;100378.00;;;21.80
4421;BMP180;11824;51.178;13.546;2022-10-16T10:22:29;100380.00;;;21.90
4421;BMP180;11824;51.178;13.546;2022-10-16T10:25:15;100393.00;;;22.10
4421;BMP180;11824;51.178;13.546;2022-10-16T10:28:13;100388.00;;;22.20
4421;BMP180;11824;51.178;13.546;2022-10-16T10:30:52;100393.00;;;22.30
4421;BMP180;11824;51.178;13.546;2022-10-16T10:33:31;100397.00;;;22.30
4421;BMP180;11824;51.178;13.546;2022-10-16T10:36:27;100393.00;;;22.40
4421;BMP180;11824;51.178;13.546;2022-10-16T10:38:59;100380.00;;;22.40
4421;BMP180;11824;51.178;13.546;2022-10-16T10:41:57;100392.00;;;22.40
4421;BMP180;11824;51.178;13.546;2022-10-16T10:44:37;100398.00;;;22.40
4421;BMP180;11824;51.178;13.546;2022-10-16T10:47:13;100398.00;;;22.50
4421;BMP180;11824;51.178;13.546;2022-10-16T10:49:53;100408.00;;;22.50
4421;BMP180;11824;51.178;13.546;2022-10-16T10:52:36;100419.00;;;22.50
4421;BMP180;11824;51.178;13.546;2022-10-16T10:55:19;100412.00;;;22.50
4421;BMP180;11824;51.178;13.546;2022-10-16T10:58:00;100414.00;;;22.50
4421;BMP180;11824;51.178;13.546;2022-10-16T11:00:42;100406.00;;;22.50
4421;BMP180;11824;51.178;13.546;2022-10-16T11:03:25;100403.00;;;22.60
4421;BMP180;11824;51.178;13.546;2022-10-16T11:05:57;100403.00;;;22.70
4421;BMP180;11824;51.178;13.546;2022-10-16T11:08:29;100407.00;;;22.80
4421;BMP180;11824;51.178;13.546;2022-10-16T11:11:06;100397.00;;;22.80
4421;BMP180;11824;51.178;13.546;2022-10-16T11:13:39;100398.00;;;22.80
4421;BMP180;11824;51.178;13.546;2022-10-16T11:16:16;100398.00;;;22.80
4421;BMP180;11824;51.178;13.546;2022-10-16T11:18:51;100398.00;;;22.70
4421;BMP180;11824;51.178;13.546;2022-10-16T11:21:22;100404.00;;;22.70
4421;BMP180;11824;51.178;13.546;2022-10-16T11:24:00;100400.00;;;22.70
4421;BMP180;11824;51.178;13.546;2022-10-16T11:26:34;100408.00;;;22.70
4421;BMP180;11824;51.178;13.546;2022-10-16T11:29:07;100410.00;;;22.80
4421;BMP180;11824;51.178;13.546;2022-10-16T11:31:41;100405.00;;;22.80
4421;BMP180;11824;51.178;13.546;2022-10-16T11:34:17;100412.00;;;22.80
4421;BMP180;11824;51.178;13.546;2022-10-16T11:37:08;100413.00;;;22.90
4421;BMP180;11824;51.178;13.546;2022-10-16T11:39:39;100418.00;;;23.00
4421;BMP180;11824;51.178;13.546;2022-10-16T11:42:13;100416.00;;;23.00
4421;BMP180;11824;51.178;13.546;2022-10-16T11:44:51;100420.00;;;23.20
4421;BMP180;11824;51.178;13.546;2022-10-16T11:47:27;100423.00;;;23.20
4421;BMP180;11824;51.178;13.546;2022-10-16T11:50:25;100433.00;;;23.30
4421;BMP180;11824;51.178;13.546;2022-10-16T11:53:03;100434.00;;;23.30
4421;BMP180;11824;51.178;13.546;2022-10-16T11:55:35;100441.00;;;23.40
4421;BMP180;11824;51.178;13.546;2022-10-16T11:58:20;100436.00;;;23.40
4421;BMP180;11824;51.178;13.546;2022-10-16T12:00:55;100430.00;;;23.40
4421;BMP180;11824;51.178;13.546;2022-10-16T12:03:29;100443.00;;;23.50
4421;BMP180;11824;51.178;13.546;2022-10-16T12:06:18;100427.00;;;23.50
4421;BMP180;11824;51.178;13.546;2022-10-16T12:08:51;100421.00;;;23.50
4421;BMP180;11824;51.178;13.546;2022-10-16T12:11:30;100429.00;;;23.50
4421;BMP180;11824;51.178;13.546;2022-10-16T12:14:19;100432.00;;;23.60
4421;BMP180;11824;51.178;13.546;2022-10-16T12:16:53;100441.00;;;23.60
4421;BMP180;11824;51.178;13.546;2022-10-16T12:19:22;100435.00;;;23.60
4421;BMP180;11824;51.178;13.546;2022-10-16T12:21:52;100444.00;;;23.60
4421;BMP180;11824;51.178;13.546;2022-10-16T12:24:34;100433.00;;;23.60
4421;BMP180;11824;51.178;13.546;2022-10-16T12:27:04;100432.00;;;23.60
4421;BMP180;11824;51.178;13.546;2022-10-16T12:29:37;100442.00;;;23.60
4421;BMP180;11824;51.178;13.546;2022-10-16T12:32:19;100448.00;;;23.60
4421;BMP180;11824;51.178;13.546;2022-10-16T12:35:19;100447.00;;;23.60
4421;BMP180;11824;51.178;13.546;2022-10-16T12:37:49;100451.00;;;23.60
4421;BMP180;11824;51.178;13.546;2022-10-16T12:40:27;100456.00;;;23.60
4421;BMP180;11824;51.178;13.546;2022-10-16T12:42:56;100457.00;;;23.50
4421;BMP180;11824;51.178;13.546;2022-10-16T12:45:28;100460.00;;;23.50
4421;BMP180;11824;51.178;13.546;2022-10-16T12:47:59;100457.00;;;23.40
4421;BMP180;11824;51.178;13.546;2022-10-16T12:50:33;100456.00;;;23.40
4421;BMP180;11824;51.178;13.546;2022-10-16T12:53:03;100458.00;;;23.40
4421;BMP180;11824;51.178;13.546;2022-10-16T12:55:43;100468.00;;;23.30
4421;BMP180;11824;51.178;13.546;2022-10-16T12:58:30;100464.00;;;23.30
4421;BMP180;11824;51.178;13.546;2022-10-16T13:01:10;100469.00;;;23.30
4421;BMP180;11824;51.178;13.546;2022-10-16T13:04:02;100471.00;;;23.30
4421;BMP180;11824;51.178;13.546;2022-10-16T13:06:41;100471.00;;;23.30
4421;BMP180;11824;51.178;13.546;2022-10-16T13:09:43;100467.00;;;23.30
4421;BMP180;11824;51.178;13.546;2022-10-16T13:12:25;100470.00;;;23.20
4421;BMP180;11824;51.178;13.546;2022-10-16T13:15:19;100469.00;;;23.20
4421;BMP180;11824;51.178;13.546;2022-10-16T13:17:59;100473.00;;;23.20
4421;BMP180;11824;51.178;13.546;2022-10-16T13:20:33;100470.00;;;23.20
4421;BMP180;11824;51.178;13.546;2022-10-16T13:23:15;100470.00;;;23.20
4421;BMP180;11824;51.178;13.546;2022-10-16T13:25:54;100467.00;;;23.20
4421;BMP180;11824;51.178;13.546;2022-10-16T13:28:29;100462.00;;;23.20
4421;BMP180;11824;51.178;13.546;2022-10-16T13:31:00;100472.00;;;23.10
4421;BMP180;11824;51.178;13.546;2022-10-16T13:33:34;100461.00;;;23.10
4421;BMP180;11824;51.178;13.546;2022-10-16T13:36:04;100465.00;;;23.10
4421;BMP180;11824;51.178;13.546;2022-10-16T13:38:35;100469.00;;;23.10
4421;BMP180;11824;51.178;13.546;2022-10-16T13:41:05;100478.00;;;23.00
4421;BMP180;11824;51.178;13.546;2022-10-16T13:43:36;100467.00;;;23.00
4421;BMP180;11824;51.178;13.546;2022-10-16T13:46:10;100469.00;;;22.90
4421;BMP180;11824;51.178;13.546;2022-10-16T13:48:41;100476.00;;;22.80
4421;BMP180;11824;51.178;13.546;2022-10-16T13:51:13;100476.00;;;22.80
4421;BMP180;11824;51.178;13.546;2022-10-16T13:53:42;100482.00;;;22.80
4421;BMP180;11824;51.178;13.546;2022-10-16T13:56:13;100487.00;;;22.70
4421;BMP180;11824;51.178;13.546;2022-10-16T13:58:42;100484.00;;;22.70
4421;BMP180;11824;51.178;13.546;2022-10-16T14:01:17;100476.00;;;22.70
4421;BMP180;11824;51.178;13.546;2022-10-16T14:03:49;100486.00;;;22.70
4421;BMP180;11824;51.178;13.546;2022-10-16T14:06:20;100496.00;;;22.70
4421;BMP180;11824;51.178;13.546;2022-10-16T14:08:56;100488.00;;;22.70
4421;BMP180;11824;51.178;13.546;2022-10-16T14:11:26;100488.00;;;22.70
4421;BMP180;11824;51.178;13.546;2022-10-16T14:13:55;100496.00;;;22.70
4421;BMP180;11824;51.178;13.546;2022-10-16T14:16:26;100486.00;;;22.60
4421;BMP180;11824;51.178;13.546;2022-10-16T14:18:59;100487.00;;;22.60
4421;BMP180;11824;51.178;13.546;2022-10-16T14:21:28;100487.00;;;22.60
4421;BMP180;11824;51.178;13.546;2022-10-16T14:23:57;100490.00;;;22.60
4421;BMP180;11824;51.178;13.546;2022-10-16T14:26:27;100484.00;;;22.60
4421;BMP180;11824;51.178;13.546;2022-10-16T14:29:09;100494.00;;;22.60
4421;BMP180;11824;51.178;13.546;2022-10-16T14:31:39;100493.00;;;22.60